createdAt,value
2019-01-25T00:00:22.874Z,29.98
2019-01-25T00:02:49.238Z,28.12
2019-01-25T00:05:15.635Z,30.20
2019-01-25T00:07:41.801Z,30.17
2019-01-25T00:10:08.832Z,29.32
2019-01-25T00:12:35.109Z,28.12
2019-01-25T00:15:01.330Z,28.20
2019-01-25T00:17:27.492Z,29.75
2019-01-25T00:19:53.645Z,28.10
2019-01-25T00:25:43.676Z,26.80
2019-01-25T00:28:09.827Z,30.45
2019-01-25T00:30:35.988Z,28.57
2019-01-25T00:33:02.206Z,30.00
2019-01-25T00:35:28.395Z,26.05
2019-01-25T00:37:54.611Z,28.65
2019-01-25T00:40:21.128Z,27.02
2019-01-25T00:42:47.757Z,30.90
2019-01-25T00:45:14.344Z,27.82
2019-01-25T00:47:40.680Z,27.87
2019-01-25T00:50:16.482Z,29.12
2019-01-25T00:52:42.933Z,30.43
2019-01-25T00:55:09.422Z,26.02
2019-01-25T00:57:35.706Z,29.10
2019-01-25T01:00:04.681Z,26.48
2019-01-25T01:02:31.084Z,30.52
2019-01-25T01:04:57.543Z,27.10
2019-01-25T01:07:23.836Z,26.50
2019-01-25T01:09:50.163Z,27.85
2019-01-25T01:12:16.387Z,27.50
2019-01-25T01:14:42.863Z,26.45
2019-01-25T01:17:09.216Z,27.25
2019-01-25T01:19:35.379Z,27.87
2019-01-25T01:22:07.901Z,24.50
2019-01-25T01:24:34.079Z,28.27
2019-01-25T01:27:00.379Z,28.12
2019-01-25T01:29:26.689Z,27.70
2019-01-25T01:31:52.932Z,25.05
2019-01-25T01:34:19.277Z,27.00
2019-01-25T01:36:45.703Z,27.62
2019-01-25T01:39:11.878Z,27.67
2019-01-25T01:41:38.122Z,27.58
2019-01-25T01:44:04.471Z,26.55
2019-01-25T01:46:30.692Z,26.45
2019-01-25T01:48:56.818Z,25.10
2019-01-25T01:51:26.109Z,26.05
2019-01-25T01:53:52.275Z,26.75
2019-01-25T01:56:18.491Z,25.02
2019-01-25T01:58:44.814Z,24.35
2019-01-25T02:01:11.034Z,26.73
2019-01-25T02:03:37.362Z,26.40
2019-01-25T02:06:03.831Z,26.40
2019-01-25T02:08:29.987Z,27.05
2019-01-25T02:10:56.191Z,26.27
2019-01-25T02:13:22.522Z,25.88
2019-01-25T02:15:48.785Z,27.58
2019-01-25T02:18:15.008Z,24.95
2019-01-25T02:20:41.220Z,27.65
2019-01-25T02:23:07.502Z,27.02
2019-01-25T02:25:33.657Z,26.40
2019-01-25T02:27:59.974Z,27.00
2019-01-25T02:30:26.586Z,27.52
2019-01-25T02:32:52.887Z,27.40
2019-01-25T02:35:19.222Z,25.23
2019-01-25T02:37:45.890Z,23.10
2019-01-25T02:40:19.012Z,25.02
2019-01-25T02:42:45.181Z,26.35
2019-01-25T02:45:12.178Z,28.17
2019-01-25T02:47:39.516Z,24.63
2019-01-25T02:50:09.369Z,24.35
2019-01-25T02:52:35.568Z,25.55
2019-01-25T02:55:01.898Z,24.35
2019-01-25T02:57:28.145Z,27.50
2019-01-25T02:59:54.476Z,25.43
2019-01-25T03:02:20.682Z,24.75
2019-01-25T03:04:46.923Z,27.22
2019-01-25T03:07:13.251Z,26.23
2019-01-25T03:09:39.362Z,23.73
2019-01-25T03:12:05.763Z,25.17
2019-01-25T03:14:32.024Z,26.02
2019-01-25T03:16:58.205Z,27.40
2019-01-25T03:19:24.457Z,24.98
2019-01-25T03:21:50.754Z,26.65
2019-01-25T03:24:17.821Z,27.05
2019-01-25T03:26:43.991Z,26.30
2019-01-25T03:29:10.272Z,27.20
2019-01-25T03:31:37.850Z,25.12
2019-01-25T03:34:04.527Z,27.07
2019-01-25T03:36:30.738Z,25.62
2019-01-25T03:38:57.162Z,24.72
2019-01-25T03:41:23.414Z,27.73
2019-01-25T03:43:49.611Z,25.17
2019-01-25T03:46:15.873Z,28.47
2019-01-25T03:48:42.175Z,25.95
2019-01-25T03:51:08.319Z,28.17
2019-01-25T03:53:34.457Z,25.75
2019-01-25T03:56:01.085Z,26.20
2019-01-25T03:58:27.422Z,28.60
2019-01-25T04:00:53.645Z,25.37
2019-01-25T04:03:19.844Z,24.30
2019-01-25T04:05:46.031Z,26.60
2019-01-25T04:08:12.277Z,28.23
2019-01-25T04:10:38.557Z,26.60
2019-01-25T04:13:04.995Z,27.77
2019-01-25T04:18:54.858Z,21.95
2019-01-25T04:21:21.137Z,27.17
2019-01-25T04:23:47.253Z,25.25
2019-01-25T04:26:14.377Z,26.73
2019-01-25T04:28:40.982Z,26.05
2019-01-25T04:31:07.070Z,28.45
2019-01-25T04:33:33.321Z,26.80
2019-01-25T04:35:59.687Z,28.67
2019-01-25T04:38:26.036Z,29.40
2019-01-25T04:40:52.337Z,26.23
2019-01-25T04:43:18.743Z,29.82
2019-01-25T04:45:44.989Z,25.80
2019-01-25T04:51:08.269Z,26.97
2019-01-25T04:53:35.439Z,23.45
2019-01-25T04:56:01.699Z,26.90
2019-01-25T04:58:27.900Z,26.05
2019-01-25T05:00:54.146Z,25.20
2019-01-25T05:03:20.407Z,26.70
2019-01-25T05:05:46.963Z,26.00
2019-01-25T05:08:16.115Z,27.73
2019-01-25T05:10:42.669Z,26.17
2019-01-25T05:13:09.152Z,26.00
2019-01-25T05:15:35.476Z,27.02
2019-01-25T05:18:01.773Z,27.22
2019-01-25T05:20:28.117Z,25.90
2019-01-25T05:22:56.855Z,25.82
2019-01-25T05:25:24.686Z,26.10
2019-01-25T05:27:51.298Z,28.95
2019-01-25T05:30:17.740Z,26.27
2019-01-25T05:32:44.056Z,26.55
2019-01-25T05:35:10.425Z,27.13
2019-01-25T05:37:36.650Z,25.88
2019-01-25T05:40:06.503Z,29.25
2019-01-25T05:42:32.743Z,27.42
2019-01-25T05:45:04.925Z,26.33
2019-01-25T05:47:31.198Z,26.48
2019-01-25T05:49:57.546Z,25.90
2019-01-25T05:52:23.757Z,27.55
2019-01-25T05:54:49.943Z,28.25
2019-01-25T05:57:16.131Z,26.60
2019-01-25T05:59:42.342Z,26.60
2019-01-25T06:02:09.143Z,27.32
2019-01-25T06:07:31.335Z,24.80
2019-01-25T06:09:57.738Z,26.05
2019-01-25T06:12:23.924Z,25.55
2019-01-25T06:14:50.132Z,25.77
2019-01-25T06:17:16.419Z,26.65
2019-01-25T06:19:42.655Z,25.70
2019-01-25T06:22:09.279Z,25.62
2019-01-25T06:24:35.943Z,26.62
2019-01-25T06:27:02.356Z,28.42
2019-01-25T06:29:29.813Z,28.52
2019-01-25T06:31:56.176Z,29.70
2019-01-25T06:34:22.357Z,27.90
2019-01-25T06:36:48.721Z,25.92
2019-01-25T06:39:14.869Z,25.48
2019-01-25T06:41:44.243Z,28.52
2019-01-25T06:44:09.336Z,29.25
2019-01-25T06:46:35.666Z,26.25
2019-01-25T06:49:01.909Z,26.68
2019-01-25T06:51:28.091Z,31.15
2019-01-25T06:53:54.260Z,28.85
2019-01-25T06:56:20.727Z,27.82
2019-01-25T06:58:51.367Z,28.65
2019-01-25T07:01:19.435Z,30.23
2019-01-25T07:03:45.687Z,27.20
2019-01-25T07:06:12.071Z,26.90
2019-01-25T07:08:38.313Z,28.25
2019-01-25T07:11:04.618Z,27.55
2019-01-25T07:13:30.858Z,31.48
2019-01-25T07:15:57.071Z,29.45
2019-01-25T07:18:23.297Z,28.50
2019-01-25T07:20:49.509Z,29.55
2019-01-25T07:23:15.763Z,31.15
2019-01-25T07:25:42.097Z,29.70
2019-01-25T07:28:08.240Z,28.50
2019-01-25T07:30:34.566Z,27.95
2019-01-25T07:33:00.727Z,30.52
2019-01-25T07:35:27.026Z,29.67
2019-01-25T07:37:53.365Z,30.37
2019-01-25T07:40:19.626Z,29.95
2019-01-25T07:42:46.073Z,31.40
2019-01-25T07:45:13.211Z,29.42
2019-01-25T07:47:39.515Z,29.63
2019-01-25T07:50:10.086Z,32.60
2019-01-25T07:52:36.497Z,29.20
2019-01-25T07:55:11.082Z,31.25
2019-01-25T07:57:37.476Z,31.97
2019-01-25T08:00:12.604Z,29.50
2019-01-25T08:02:38.873Z,31.80
2019-01-25T08:05:07.351Z,29.75
2019-01-25T08:07:33.755Z,28.45
2019-01-25T08:10:00.582Z,32.58
2019-01-25T08:12:27.122Z,28.07
2019-01-25T08:14:53.328Z,32.80
2019-01-25T08:17:19.508Z,29.18
2019-01-25T08:19:45.740Z,27.60
2019-01-25T08:22:11.898Z,33.80
2019-01-25T08:24:38.418Z,30.27
2019-01-25T08:27:04.953Z,31.15
2019-01-25T08:29:31.296Z,32.17
2019-01-25T08:31:57.577Z,31.85
2019-01-25T08:34:23.942Z,33.90
2019-01-25T08:36:50.212Z,33.78
2019-01-25T08:39:16.692Z,30.65
2019-01-25T08:41:43.144Z,33.65
2019-01-25T08:44:09.582Z,32.20
2019-01-25T08:46:36.460Z,33.80
2019-01-25T08:49:03.222Z,34.35
2019-01-25T08:51:29.497Z,31.93
2019-01-25T08:53:55.870Z,31.77
2019-01-25T08:56:22.242Z,33.02
2019-01-25T08:58:48.765Z,31.80
2019-01-25T09:01:15.089Z,32.85
2019-01-25T09:03:41.648Z,32.78
2019-01-25T09:06:08.280Z,30.85
2019-01-25T09:08:34.999Z,31.33
2019-01-25T09:11:01.320Z,33.67
2019-01-25T09:13:27.642Z,35.15
2019-01-25T09:15:54.024Z,34.45
2019-01-25T09:18:20.238Z,32.10
2019-01-25T09:20:46.544Z,33.10
2019-01-25T09:23:12.819Z,31.93
2019-01-25T09:25:39.033Z,35.68
2019-01-25T09:28:05.889Z,31.30
2019-01-25T09:30:32.212Z,31.52
2019-01-25T09:32:58.606Z,32.33
2019-01-25T09:35:24.855Z,32.73
2019-01-25T09:37:51.631Z,31.70
2019-01-25T09:40:22.113Z,32.15
2019-01-25T09:42:49.068Z,30.50
2019-01-25T09:45:15.497Z,32.00
2019-01-25T09:47:41.978Z,32.25
2019-01-25T09:50:14.819Z,30.35
2019-01-25T09:52:41.069Z,31.50
2019-01-25T09:55:10.619Z,32.28
2019-01-25T09:57:36.895Z,30.77
2019-01-25T10:00:10.123Z,30.75
2019-01-25T10:02:36.408Z,29.57
2019-01-25T10:05:04.456Z,30.82
2019-01-25T10:07:30.924Z,31.62
2019-01-25T10:10:10.864Z,30.57
2019-01-25T10:12:43.322Z,29.23
2019-01-25T10:15:27.478Z,31.65
2019-01-25T10:17:57.654Z,30.32
2019-01-25T10:20:24.330Z,31.15
2019-01-25T10:22:50.425Z,30.60
2019-01-25T10:25:16.715Z,31.35
2019-01-25T10:27:42.955Z,29.45
2019-01-25T10:30:18.472Z,29.57
2019-01-25T10:32:44.772Z,28.20
2019-01-25T10:35:11.388Z,30.97
2019-01-25T10:37:37.740Z,30.17
2019-01-25T10:40:10.403Z,28.42
2019-01-25T10:42:44.125Z,32.08
2019-01-25T10:45:25.608Z,27.87
2019-01-25T10:47:51.837Z,28.77
2019-01-25T10:50:18.323Z,29.20
2019-01-25T10:52:44.551Z,28.05
2019-01-25T10:55:11.494Z,29.12
2019-01-25T10:57:37.816Z,29.23
2019-01-25T11:00:07.890Z,28.23
2019-01-25T11:02:34.127Z,27.42
2019-01-25T11:05:01.241Z,28.52
2019-01-25T11:07:27.561Z,29.00
2019-01-25T11:09:53.881Z,27.15
2019-01-25T11:12:20.059Z,29.87
2019-01-25T11:14:46.529Z,29.37
2019-01-25T11:17:12.768Z,27.22
2019-01-25T11:19:38.928Z,25.72
2019-01-25T11:22:05.325Z,28.30
2019-01-25T11:24:31.788Z,28.45
2019-01-25T11:27:00.356Z,28.50
2019-01-25T11:29:26.262Z,26.15
2019-01-25T11:31:52.878Z,29.02
2019-01-25T11:34:19.308Z,26.25
2019-01-25T11:36:45.615Z,27.93
2019-01-25T11:39:11.999Z,28.20
2019-01-25T11:41:38.375Z,26.97
2019-01-25T11:44:04.663Z,25.30
2019-01-25T11:46:31.043Z,24.60
2019-01-25T11:48:57.338Z,27.32
2019-01-25T11:51:23.855Z,26.45
2019-01-25T11:53:50.491Z,25.15
2019-01-25T11:56:16.789Z,26.80
2019-01-25T11:58:43.032Z,25.97
2019-01-25T12:01:09.436Z,27.58
2019-01-25T12:03:35.684Z,25.55
2019-01-25T12:06:02.438Z,26.62
2019-01-25T12:08:28.853Z,27.87
2019-01-25T12:10:55.588Z,25.82
2019-01-25T12:13:22.351Z,27.55
2019-01-25T12:15:48.734Z,26.23
2019-01-25T12:18:15.206Z,25.35
2019-01-25T12:20:41.447Z,23.15
2019-01-25T12:23:07.873Z,24.45
2019-01-25T12:25:34.072Z,25.17
2019-01-25T12:28:05.172Z,24.30
2019-01-25T12:30:37.728Z,24.52
2019-01-25T12:33:03.923Z,23.92
2019-01-25T12:35:33.044Z,24.12
2019-01-25T12:37:59.376Z,25.77
2019-01-25T12:40:25.700Z,23.60
2019-01-25T12:42:51.936Z,23.85
2019-01-25T12:45:26.271Z,25.57
2019-01-25T12:47:52.481Z,25.12
2019-01-25T12:50:27.823Z,25.15
2019-01-25T12:52:54.040Z,24.52
2019-01-25T12:55:20.580Z,24.52
2019-01-25T12:57:46.803Z,26.70
2019-01-25T13:00:16.158Z,25.57
2019-01-25T13:02:42.603Z,23.65
2019-01-25T13:05:12.211Z,22.98
2019-01-25T13:07:38.619Z,24.27
2019-01-25T13:10:08.791Z,22.95
2019-01-25T13:12:35.172Z,22.37
2019-01-25T13:15:03.489Z,23.70
2019-01-25T13:17:29.803Z,22.55
2019-01-25T13:19:56.061Z,20.80
2019-01-25T13:22:22.527Z,21.90
2019-01-25T13:24:48.895Z,22.42
2019-01-25T13:27:15.214Z,21.48
2019-01-25T13:29:41.707Z,21.93
2019-01-25T13:32:08.014Z,21.42
2019-01-25T13:34:34.284Z,21.33
2019-01-25T13:37:00.747Z,20.15
2019-01-25T13:39:27.053Z,19.75
2019-01-25T13:41:56.352Z,20.77
2019-01-25T13:44:22.976Z,21.55
2019-01-25T13:46:49.327Z,21.45
2019-01-25T13:49:15.515Z,22.20
2019-01-25T13:51:41.883Z,20.92
2019-01-25T13:54:08.251Z,20.52
2019-01-25T13:56:34.536Z,19.80
2019-01-25T13:59:01.060Z,19.82
2019-01-25T14:01:34.353Z,18.45
2019-01-25T14:03:55.380Z,22.77
2019-01-25T14:06:21.614Z,19.20
2019-01-25T14:08:48.116Z,18.25
2019-01-25T14:11:14.460Z,19.25
2019-01-25T14:13:46.675Z,17.85
2019-01-25T14:16:08.937Z,15.32
2019-01-25T14:18:35.229Z,16.35
2019-01-25T14:21:01.709Z,17.77
2019-01-25T14:23:27.996Z,16.20
2019-01-25T14:25:54.300Z,15.95
2019-01-25T14:28:20.631Z,18.85
2019-01-25T14:30:46.904Z,17.60
2019-01-25T14:33:13.435Z,18.30
2019-01-25T14:35:39.986Z,18.60
2019-01-25T14:38:07.287Z,17.65
2019-01-25T14:40:33.773Z,16.75
2019-01-25T14:43:00.021Z,17.42
2019-01-25T14:45:26.678Z,16.55
2019-01-25T14:47:53.074Z,17.23
2019-01-25T14:50:30.688Z,17.92
2019-01-25T14:52:57.683Z,17.30
2019-01-25T14:55:24.134Z,18.10
2019-01-25T14:57:50.913Z,18.25
2019-01-25T15:00:17.080Z,18.12
2019-01-25T15:02:43.332Z,17.35
2019-01-25T15:05:12.812Z,17.90
2019-01-25T15:07:39.170Z,18.40
2019-01-25T15:10:25.348Z,17.70
2019-01-25T15:12:56.100Z,18.75
2019-01-25T15:15:22.679Z,17.45
2019-01-25T15:17:48.984Z,18.15
2019-01-25T15:20:24.622Z,16.80
2019-01-25T15:22:51.044Z,16.20
2019-01-25T15:25:17.658Z,17.32
2019-01-25T15:27:43.989Z,15.88
2019-01-25T15:30:19.467Z,15.40
2019-01-25T15:32:46.239Z,15.88
2019-01-25T15:35:14.809Z,16.23
2019-01-25T15:37:41.125Z,16.55
2019-01-25T15:40:10.383Z,18.20
2019-01-25T15:42:36.797Z,17.80
2019-01-25T15:45:06.748Z,17.60
2019-01-25T15:47:33.192Z,18.23
2019-01-25T15:49:59.445Z,17.98
2019-01-25T15:52:25.708Z,19.07
2019-01-25T15:54:52.310Z,20.90
2019-01-25T15:57:18.598Z,20.17
2019-01-25T15:59:44.852Z,19.10
2019-01-25T16:02:11.634Z,20.37
2019-01-25T16:04:37.904Z,23.15
2019-01-25T16:07:04.236Z,21.73
2019-01-25T16:09:30.503Z,20.17
2019-01-25T16:11:56.780Z,21.70
2019-01-25T16:14:23.302Z,19.95
2019-01-25T16:16:49.560Z,21.12
2019-01-25T16:19:15.997Z,20.43
2019-01-25T16:21:42.285Z,21.75
2019-01-25T16:24:08.587Z,20.75
2019-01-25T16:26:35.024Z,21.55
2019-01-25T16:29:01.383Z,23.65
2019-01-25T16:31:27.610Z,21.77
2019-01-25T16:33:53.984Z,22.30
2019-01-25T16:36:20.255Z,20.65
2019-01-25T16:38:46.507Z,21.82
2019-01-25T16:41:12.895Z,21.25
2019-01-25T16:43:39.157Z,20.20
2019-01-25T16:46:05.595Z,21.57
2019-01-25T16:48:32.068Z,21.25
2019-01-25T16:50:58.494Z,20.85
2019-01-25T16:53:24.909Z,21.33
2019-01-25T16:55:51.373Z,20.95
2019-01-25T16:58:17.657Z,22.02
2019-01-25T17:00:44.309Z,21.15
2019-01-25T17:03:10.653Z,20.23
2019-01-25T17:05:36.997Z,21.33
2019-01-25T17:08:05.722Z,22.22
2019-01-25T17:10:32.501Z,22.60
2019-01-25T17:12:58.868Z,19.85
2019-01-25T17:15:26.648Z,20.15
2019-01-25T17:17:53.051Z,20.82
2019-01-25T17:20:21.964Z,21.55
2019-01-25T17:22:48.259Z,20.30
2019-01-25T17:25:14.919Z,21.25
2019-01-25T17:27:41.286Z,19.45
2019-01-25T17:30:25.685Z,22.27
2019-01-25T17:32:53.545Z,22.48
2019-01-25T17:35:19.871Z,20.60
2019-01-25T17:37:46.134Z,21.50
2019-01-25T17:40:15.067Z,20.85
2019-01-25T17:42:41.673Z,19.55
2019-01-25T17:45:09.800Z,21.12
2019-01-25T17:47:36.134Z,20.70
2019-01-25T17:50:06.286Z,21.27
2019-01-25T17:52:32.501Z,19.52
2019-01-25T17:54:58.761Z,22.55
2019-01-25T17:57:25.462Z,22.77
2019-01-25T17:59:52.572Z,22.50
2019-01-25T18:02:19.336Z,22.82
2019-01-25T18:04:45.676Z,23.20
2019-01-25T18:10:24.418Z,29.87
2019-01-25T18:12:50.698Z,23.12
2019-01-25T18:15:18.650Z,23.83
2019-01-25T18:17:45.625Z,25.45
2019-01-25T18:20:15.597Z,23.55
2019-01-25T18:26:06.474Z,24.25
2019-01-25T18:31:46.765Z,24.95
2019-01-25T18:34:13.648Z,26.35
2019-01-25T18:40:08.156Z,26.73
2019-01-25T18:46:10.616Z,26.30
2019-01-25T18:48:38.080Z,26.77
2019-01-25T18:51:04.800Z,29.48
2019-01-25T18:53:31.778Z,28.75
2019-01-25T18:55:58.611Z,28.77
2019-01-25T18:58:25.978Z,29.40
2019-01-25T19:00:52.879Z,29.65
2019-01-25T19:03:20.574Z,29.85
2019-01-25T19:09:10.619Z,30.25
2019-01-25T19:11:37.029Z,31.15
2019-01-25T19:14:04.781Z,30.43
2019-01-25T19:16:32.212Z,29.65
2019-01-25T19:18:58.689Z,32.50
2019-01-25T19:21:25.456Z,29.12
2019-01-25T19:23:52.233Z,30.48
2019-01-25T19:29:30.473Z,28.50
2019-01-25T19:31:57.186Z,30.25
2019-01-25T19:34:23.899Z,30.45
2019-01-25T19:36:52.416Z,29.92
2019-01-25T19:39:20.645Z,31.40
2019-01-25T19:41:47.216Z,30.40
2019-01-25T19:44:13.660Z,30.95
2019-01-25T19:46:40.245Z,30.60
2019-01-25T19:49:06.708Z,31.95
2019-01-25T19:51:33.372Z,29.95
2019-01-25T19:53:59.768Z,32.08
2019-01-25T19:56:26.115Z,29.72
2019-01-25T19:58:52.451Z,30.65
2019-01-25T20:04:43.163Z,31.45
2019-01-25T20:07:10.267Z,31.10
2019-01-25T20:09:37.613Z,31.23
2019-01-25T20:12:05.395Z,31.82
2019-01-25T20:14:32.222Z,33.38
2019-01-25T20:16:59.338Z,30.72
2019-01-25T20:19:26.055Z,30.60
2019-01-25T20:21:52.647Z,31.82
2019-01-25T20:24:19.218Z,32.50
2019-01-25T20:26:45.851Z,33.67
2019-01-25T20:29:12.593Z,34.67
2019-01-25T20:31:39.315Z,32.38
2019-01-25T20:34:06.228Z,35.20
2019-01-25T20:36:32.614Z,35.80
2019-01-25T20:42:22.772Z,35.20
2019-01-25T20:44:49.567Z,33.95
2019-01-25T20:47:16.005Z,35.90
2019-01-25T20:49:42.926Z,40.50
2019-01-25T20:52:09.788Z,38.17
2019-01-25T20:54:36.360Z,37.98
2019-01-25T20:57:03.080Z,36.88
2019-01-25T20:59:29.705Z,37.40
2019-01-25T21:01:56.163Z,38.15
2019-01-25T21:04:22.717Z,38.70
2019-01-25T21:06:49.333Z,41.88
2019-01-25T21:09:15.832Z,40.65
2019-01-25T21:15:09.459Z,34.55
2019-01-25T21:17:36.148Z,36.90
2019-01-25T21:23:14.589Z,33.92
2019-01-25T21:29:05.376Z,33.80
2019-01-25T21:31:32.074Z,35.30
2019-01-25T21:33:58.701Z,32.50
2019-01-25T21:39:36.455Z,35.50
2019-01-25T21:45:28.871Z,35.08
2019-01-25T21:47:55.627Z,34.30
2019-01-25T21:50:25.362Z,34.83
2019-01-25T21:52:52.530Z,34.40
2019-01-25T21:55:19.420Z,33.15
2019-01-25T22:01:09.409Z,32.45
2019-01-25T22:03:36.078Z,34.25
2019-01-25T22:06:02.638Z,34.48
2019-01-25T22:08:29.302Z,33.48
2019-01-25T22:14:31.080Z,35.60
2019-01-25T22:20:13.178Z,30.20
2019-01-25T22:22:39.627Z,33.00
2019-01-25T22:28:29.794Z,32.03
2019-01-25T22:30:56.868Z,33.30
2019-01-25T22:33:23.196Z,29.70
2019-01-25T22:35:49.920Z,30.25
2019-01-25T22:38:16.370Z,34.65
2019-01-25T22:40:43.086Z,32.40
2019-01-25T22:43:09.398Z,32.23
2019-01-25T22:45:36.159Z,33.73
2019-01-25T22:48:03.804Z,31.80
2019-01-25T22:50:32.192Z,33.28
2019-01-25T22:52:58.678Z,32.00
2019-01-25T22:55:25.623Z,31.75
2019-01-25T23:01:19.746Z,31.68
2019-01-25T23:03:53.331Z,30.35
2019-01-25T23:06:35.464Z,33.85
2019-01-25T23:12:25.224Z,32.03
2019-01-25T23:14:51.575Z,34.55
2019-01-25T23:17:18.103Z,33.10
2019-01-25T23:19:44.602Z,33.28
2019-01-25T23:25:22.523Z,35.13
2019-01-25T23:27:48.926Z,36.25
2019-01-25T23:30:15.756Z,33.05
2019-01-25T23:32:42.538Z,34.53
2019-01-25T23:35:09.717Z,34.50
2019-01-25T23:37:36.707Z,34.90
2019-01-25T23:43:14.450Z,32.38
2019-01-25T23:45:40.946Z,35.95
2019-01-25T23:48:07.449Z,35.80
2019-01-25T23:53:57.947Z,33.80
2019-01-25T23:56:24.455Z,35.08
